Terminal Aerodrome Forecast
Issued by NWS

Home | Current Version | Previous Version | Graphics & Text | Print | Product List | Glossary On
Versions: 1 2 3 4 5 6 7 8 9 10 11 12
146
FTUS43 KMPX 181720
TAFAXN
TAF
KAXN 181720Z 1818/1918 27009KT P6SM BKN200
     FM190100 21006KT P6SM SCT200
     FM191200 21008KT P6SM BKN150=

USA.gov is the U.S. government's official web portal to all federal, state and local government web resources and services.